sensor_id;sensor_type;location;lat;lon;timestamp;P1;durP1;ratioP1;P2;durP2;ratioP2
13147;SDS011;6639;50.956;4.242;2023-01-05T00:02:09;24.90;;;10.13;;
13147;SDS011;6639;50.956;4.242;2023-01-05T00:04:41;27.67;;;9.18;;
13147;SDS011;6639;50.956;4.242;2023-01-05T00:07:22;26.48;;;9.93;;
13147;SDS011;6639;50.956;4.242;2023-01-05T00:09:58;31.67;;;10.07;;
13147;SDS011;6639;50.956;4.242;2023-01-05T00:13:03;23.85;;;8.70;;
13147;SDS011;6639;50.956;4.242;2023-01-05T00:15:47;22.75;;;8.00;;
13147;SDS011;6639;50.956;4.242;2023-01-05T00:18:36;27.25;;;8.25;;
13147;SDS011;6639;50.956;4.242;2023-01-05T00:21:24;22.13;;;7.57;;
13147;SDS011;6639;50.956;4.242;2023-01-05T00:24:11;24.05;;;7.57;;
13147;SDS011;6639;50.956;4.242;2023-01-05T00:26:39;25.73;;;7.03;;
13147;SDS011;6639;50.956;4.242;2023-01-05T00:29:09;25.52;;;7.50;;
13147;SDS011;6639;50.956;4.242;2023-01-05T00:31:36;26.75;;;6.60;;
13147;SDS011;6639;50.956;4.242;2023-01-05T00:34:16;22.90;;;6.65;;
13147;SDS011;6639;50.956;4.242;2023-01-05T00:36:53;21.88;;;6.60;;
13147;SDS011;6639;50.956;4.242;2023-01-05T00:39:21;21.88;;;5.35;;
13147;SDS011;6639;50.956;4.242;2023-01-05T00:41:55;24.10;;;5.90;;
13147;SDS011;6639;50.956;4.242;2023-01-05T00:44:31;27.42;;;6.78;;
13147;SDS011;6639;50.956;4.242;2023-01-05T00:47:07;21.15;;;5.88;;
13147;SDS011;6639;50.956;4.242;2023-01-05T00:49:39;23.55;;;6.20;;
13147;SDS011;6639;50.956;4.242;2023-01-05T00:52:11;18.13;;;5.65;;
13147;SDS011;6639;50.956;4.242;2023-01-05T00:54:38;21.65;;;5.78;;
13147;SDS011;6639;50.956;4.242;2023-01-05T00:57:20;22.05;;;6.78;;
13147;SDS011;6639;50.956;4.242;2023-01-05T00:59:48;20.88;;;6.05;;
13147;SDS011;6639;50.956;4.242;2023-01-05T01:02:17;26.02;;;5.45;;
13147;SDS011;6639;50.956;4.242;2023-01-05T01:04:47;18.70;;;4.68;;
13147;SDS011;6639;50.956;4.242;2023-01-05T01:07:20;25.50;;;7.07;;
13147;SDS011;6639;50.956;4.242;2023-01-05T01:09:53;25.35;;;6.50;;
13147;SDS011;6639;50.956;4.242;2023-01-05T01:12:24;16.98;;;5.30;;
13147;SDS011;6639;50.956;4.242;2023-01-05T01:14:57;22.35;;;6.22;;
13147;SDS011;6639;50.956;4.242;2023-01-05T01:17:25;23.73;;;5.28;;
13147;SDS011;6639;50.956;4.242;2023-01-05T01:20:06;22.02;;;6.32;;
13147;SDS011;6639;50.956;4.242;2023-01-05T01:22:37;25.95;;;5.60;;
13147;SDS011;6639;50.956;4.242;2023-01-05T01:25:09;23.85;;;5.68;;
13147;SDS011;6639;50.956;4.242;2023-01-05T01:27:45;22.88;;;7.15;;
13147;SDS011;6639;50.956;4.242;2023-01-05T01:30:21;16.80;;;5.38;;
13147;SDS011;6639;50.956;4.242;2023-01-05T01:33:03;22.23;;;5.88;;
13147;SDS011;6639;50.956;4.242;2023-01-05T01:38:33;21.35;;;6.25;;
13147;SDS011;6639;50.956;4.242;2023-01-05T01:41:02;20.10;;;5.45;;
13147;SDS011;6639;50.956;4.242;2023-01-05T01:43:39;22.00;;;6.10;;
13147;SDS011;6639;50.956;4.242;2023-01-05T01:46:16;24.95;;;5.75;;
13147;SDS011;6639;50.956;4.242;2023-01-05T01:48:50;21.45;;;5.50;;
13147;SDS011;6639;50.956;4.242;2023-01-05T01:51:27;21.38;;;5.72;;
13147;SDS011;6639;50.956;4.242;2023-01-05T01:54:00;22.55;;;6.78;;
13147;SDS011;6639;50.956;4.242;2023-01-05T01:56:32;18.75;;;5.10;;
13147;SDS011;6639;50.956;4.242;2023-01-05T01:59:04;21.52;;;5.50;;
13147;SDS011;6639;50.956;4.242;2023-01-05T02:01:45;22.92;;;6.53;;
13147;SDS011;6639;50.956;4.242;2023-01-05T02:04:35;24.83;;;5.82;;
13147;SDS011;6639;50.956;4.242;2023-01-05T02:07:04;18.90;;;6.32;;
13147;SDS011;6639;50.956;4.242;2023-01-05T02:12:27;29.50;;;6.13;;
13147;SDS011;6639;50.956;4.242;2023-01-05T02:15:13;18.70;;;5.63;;
13147;SDS011;6639;50.956;4.242;2023-01-05T02:17:52;22.10;;;6.10;;
13147;SDS011;6639;50.956;4.242;2023-01-05T02:20:38;28.73;;;6.25;;
13147;SDS011;6639;50.956;4.242;2023-01-05T02:23:41;20.60;;;5.38;;
13147;SDS011;6639;50.956;4.242;2023-01-05T02:35:40;29.98;;;6.43;;
13147;SDS011;6639;50.956;4.242;2023-01-05T02:38:21;23.00;;;5.88;;
13147;SDS011;6639;50.956;4.242;2023-01-05T02:41:02;32.08;;;7.53;;
13147;SDS011;6639;50.956;4.242;2023-01-05T02:43:48;24.10;;;5.18;;
13147;SDS011;6639;50.956;4.242;2023-01-05T02:46:16;27.52;;;6.45;;
13147;SDS011;6639;50.956;4.242;2023-01-05T02:48:49;24.05;;;6.18;;
13147;SDS011;6639;50.956;4.242;2023-01-05T02:51:21;20.27;;;6.55;;
13147;SDS011;6639;50.956;4.242;2023-01-05T02:53:53;21.00;;;5.68;;
13147;SDS011;6639;50.956;4.242;2023-01-05T02:56:26;20.98;;;5.35;;
13147;SDS011;6639;50.956;4.242;2023-01-05T02:59:00;28.42;;;6.05;;
13147;SDS011;6639;50.956;4.242;2023-01-05T03:01:32;26.85;;;6.20;;
13147;SDS011;6639;50.956;4.242;2023-01-05T03:04:04;18.00;;;5.63;;
13147;SDS011;6639;50.956;4.242;2023-01-05T03:06:42;26.48;;;6.20;;
13147;SDS011;6639;50.956;4.242;2023-01-05T03:09:20;19.83;;;6.03;;
13147;SDS011;6639;50.956;4.242;2023-01-05T03:11:54;23.88;;;5.68;;
13147;SDS011;6639;50.956;4.242;2023-01-05T03:14:45;25.63;;;6.20;;
13147;SDS011;6639;50.956;4.242;2023-01-05T03:17:17;25.80;;;6.75;;
13147;SDS011;6639;50.956;4.242;2023-01-05T03:19:53;23.95;;;6.13;;
13147;SDS011;6639;50.956;4.242;2023-01-05T03:25:24;26.90;;;7.05;;
13147;SDS011;6639;50.956;4.242;2023-01-05T03:28:12;29.02;;;7.25;;
13147;SDS011;6639;50.956;4.242;2023-01-05T03:31:01;31.17;;;6.55;;
13147;SDS011;6639;50.956;4.242;2023-01-05T03:33:50;24.23;;;5.47;;
13147;SDS011;6639;50.956;4.242;2023-01-05T03:36:43;22.27;;;5.88;;
13147;SDS011;6639;50.956;4.242;2023-01-05T03:39:17;24.60;;;6.00;;
13147;SDS011;6639;50.956;4.242;2023-01-05T03:41:50;28.30;;;6.15;;
13147;SDS011;6639;50.956;4.242;2023-01-05T03:44:21;21.42;;;5.93;;
13147;SDS011;6639;50.956;4.242;2023-01-05T03:46:49;25.65;;;6.13;;
13147;SDS011;6639;50.956;4.242;2023-01-05T03:49:17;20.15;;;5.90;;
13147;SDS011;6639;50.956;4.242;2023-01-05T03:51:46;25.20;;;5.72;;
13147;SDS011;6639;50.956;4.242;2023-01-05T03:54:13;24.80;;;6.55;;
13147;SDS011;6639;50.956;4.242;2023-01-05T03:56:40;21.27;;;6.38;;
13147;SDS011;6639;50.956;4.242;2023-01-05T03:59:08;24.75;;;6.05;;
13147;SDS011;6639;50.956;4.242;2023-01-05T04:01:38;25.77;;;6.10;;
13147;SDS011;6639;50.956;4.242;2023-01-05T04:04:07;23.30;;;6.00;;
13147;SDS011;6639;50.956;4.242;2023-01-05T04:06:34;18.13;;;5.22;;
13147;SDS011;6639;50.956;4.242;2023-01-05T04:09:03;22.25;;;6.10;;
13147;SDS011;6639;50.956;4.242;2023-01-05T04:11:34;24.55;;;6.95;;
13147;SDS011;6639;50.956;4.242;2023-01-05T04:14:02;20.90;;;6.22;;
13147;SDS011;6639;50.956;4.242;2023-01-05T04:16:29;23.70;;;5.45;;
13147;SDS011;6639;50.956;4.242;2023-01-05T04:19:08;29.15;;;7.25;;
13147;SDS011;6639;50.956;4.242;2023-01-05T04:21:36;23.25;;;5.80;;
13147;SDS011;6639;50.956;4.242;2023-01-05T04:24:07;23.92;;;6.82;;
13147;SDS011;6639;50.956;4.242;2023-01-05T04:26:36;24.27;;;5.85;;
13147;SDS011;6639;50.956;4.242;2023-01-05T04:29:03;21.45;;;6.07;;
13147;SDS011;6639;50.956;4.242;2023-01-05T04:31:33;25.60;;;6.47;;
13147;SDS011;6639;50.956;4.242;2023-01-05T04:34:00;23.20;;;5.90;;
13147;SDS011;6639;50.956;4.242;2023-01-05T04:36:31;22.90;;;6.28;;
13147;SDS011;6639;50.956;4.242;2023-01-05T04:39:18;23.02;;;6.03;;
13147;SDS011;6639;50.956;4.242;2023-01-05T04:41:51;23.77;;;6.47;;
13147;SDS011;6639;50.956;4.242;2023-01-05T04:44:29;19.50;;;5.30;;
13147;SDS011;6639;50.956;4.242;2023-01-05T04:46:57;26.48;;;6.82;;
13147;SDS011;6639;50.956;4.242;2023-01-05T04:49:29;24.13;;;5.50;;
13147;SDS011;6639;50.956;4.242;2023-01-05T04:52:00;19.80;;;6.15;;
13147;SDS011;6639;50.956;4.242;2023-01-05T04:54:29;25.80;;;5.97;;
13147;SDS011;6639;50.956;4.242;2023-01-05T04:56:58;19.85;;;5.35;;
13147;SDS011;6639;50.956;4.242;2023-01-05T04:59:36;21.63;;;6.57;;
13147;SDS011;6639;50.956;4.242;2023-01-05T05:12:51;21.10;;;6.82;;
13147;SDS011;6639;50.956;4.242;2023-01-05T05:15:18;28.23;;;6.55;;
13147;SDS011;6639;50.956;4.242;2023-01-05T05:17:45;24.88;;;5.40;;
13147;SDS011;6639;50.956;4.242;2023-01-05T05:20:13;23.42;;;6.30;;
13147;SDS011;6639;50.956;4.242;2023-01-05T05:22:40;21.67;;;6.20;;
13147;SDS011;6639;50.956;4.242;2023-01-05T05:25:08;22.83;;;6.95;;
13147;SDS011;6639;50.956;4.242;2023-01-05T05:27:39;20.40;;;5.90;;
13147;SDS011;6639;50.956;4.242;2023-01-05T05:30:19;21.08;;;5.75;;
13147;SDS011;6639;50.956;4.242;2023-01-05T05:32:50;23.73;;;6.63;;
13147;SDS011;6639;50.956;4.242;2023-01-05T05:35:25;24.42;;;5.93;;
13147;SDS011;6639;50.956;4.242;2023-01-05T05:37:58;32.08;;;6.68;;
13147;SDS011;6639;50.956;4.242;2023-01-05T05:40:25;23.20;;;6.47;;
13147;SDS011;6639;50.956;4.242;2023-01-05T05:42:56;31.90;;;6.90;;
13147;SDS011;6639;50.956;4.242;2023-01-05T05:45:35;28.05;;;6.47;;
13147;SDS011;6639;50.956;4.242;2023-01-05T05:48:09;32.30;;;7.32;;
13147;SDS011;6639;50.956;4.242;2023-01-05T05:50:37;33.28;;;7.53;;
13147;SDS011;6639;50.956;4.242;2023-01-05T05:53:08;22.17;;;5.88;;
13147;SDS011;6639;50.956;4.242;2023-01-05T05:55:49;23.98;;;6.53;;
13147;SDS011;6639;50.956;4.242;2023-01-05T05:58:22;22.77;;;6.38;;
13147;SDS011;6639;50.956;4.242;2023-01-05T06:00:58;27.52;;;6.97;;
13147;SDS011;6639;50.956;4.242;2023-01-05T06:03:30;25.13;;;6.68;;
13147;SDS011;6639;50.956;4.242;2023-01-05T06:05:58;30.23;;;6.60;;
13147;SDS011;6639;50.956;4.242;2023-01-05T06:08:35;21.67;;;5.57;;
13147;SDS011;6639;50.956;4.242;2023-01-05T06:11:03;24.35;;;6.85;;
13147;SDS011;6639;50.956;4.242;2023-01-05T06:13:39;33.15;;;7.57;;
13147;SDS011;6639;50.956;4.242;2023-01-05T06:16:16;29.92;;;9.85;;
13147;SDS011;6639;50.956;4.242;2023-01-05T06:19:02;32.33;;;7.03;;
13147;SDS011;6639;50.956;4.242;2023-01-05T06:21:45;25.23;;;5.78;;
13147;SDS011;6639;50.956;4.242;2023-01-05T06:24:31;28.05;;;5.80;;
13147;SDS011;6639;50.956;4.242;2023-01-05T06:27:02;18.15;;;5.88;;
13147;SDS011;6639;50.956;4.242;2023-01-05T06:29:47;25.60;;;5.97;;
13147;SDS011;6639;50.956;4.242;2023-01-05T06:35:07;27.85;;;7.07;;
13147;SDS011;6639;50.956;4.242;2023-01-05T06:37:34;27.95;;;6.97;;
13147;SDS011;6639;50.956;4.242;2023-01-05T06:40:05;29.40;;;7.50;;
13147;SDS011;6639;50.956;4.242;2023-01-05T06:45:30;27.83;;;7.22;;
13147;SDS011;6639;50.956;4.242;2023-01-05T06:48:00;25.75;;;7.05;;
13147;SDS011;6639;50.956;4.242;2023-01-05T06:50:46;23.33;;;6.28;;
13147;SDS011;6639;50.956;4.242;2023-01-05T06:53:22;28.15;;;6.53;;
13147;SDS011;6639;50.956;4.242;2023-01-05T06:55:56;24.98;;;6.32;;
13147;SDS011;6639;50.956;4.242;2023-01-05T06:58:25;27.40;;;6.85;;
13147;SDS011;6639;50.956;4.242;2023-01-05T07:00:55;24.67;;;6.43;;
13147;SDS011;6639;50.956;4.242;2023-01-05T07:03:24;20.48;;;5.65;;
13147;SDS011;6639;50.956;4.242;2023-01-05T07:06:02;26.70;;;7.35;;
13147;SDS011;6639;50.956;4.242;2023-01-05T07:08:42;27.98;;;6.68;;
13147;SDS011;6639;50.956;4.242;2023-01-05T07:11:09;27.05;;;8.75;;
13147;SDS011;6639;50.956;4.242;2023-01-05T07:13:45;21.85;;;6.72;;
13147;SDS011;6639;50.956;4.242;2023-01-05T07:16:19;23.30;;;5.95;;
13147;SDS011;6639;50.956;4.242;2023-01-05T07:18:50;23.73;;;6.88;;
13147;SDS011;6639;50.956;4.242;2023-01-05T07:21:19;19.40;;;6.28;;
13147;SDS011;6639;50.956;4.242;2023-01-05T07:23:49;25.85;;;6.97;;
13147;SDS011;6639;50.956;4.242;2023-01-05T07:26:17;32.78;;;6.40;;
13147;SDS011;6639;50.956;4.242;2023-01-05T07:28:48;29.88;;;6.13;;
13147;SDS011;6639;50.956;4.242;2023-01-05T07:31:16;22.83;;;6.38;;
13147;SDS011;6639;50.956;4.242;2023-01-05T07:33:46;24.23;;;5.55;;
13147;SDS011;6639;50.956;4.242;2023-01-05T07:39:10;23.65;;;6.57;;
13147;SDS011;6639;50.956;4.242;2023-01-05T07:41:44;26.65;;;6.43;;
13147;SDS011;6639;50.956;4.242;2023-01-05T07:44:13;29.80;;;8.02;;
13147;SDS011;6639;50.956;4.242;2023-01-05T07:46:51;28.60;;;7.55;;
13147;SDS011;6639;50.956;4.242;2023-01-05T07:49:29;18.23;;;5.75;;
13147;SDS011;6639;50.956;4.242;2023-01-05T07:52:02;26.23;;;6.93;;
13147;SDS011;6639;50.956;4.242;2023-01-05T07:54:48;22.48;;;5.90;;
13147;SDS011;6639;50.956;4.242;2023-01-05T07:57:15;22.25;;;6.15;;
13147;SDS011;6639;50.956;4.242;2023-01-05T07:59:47;29.92;;;6.20;;
13147;SDS011;6639;50.956;4.242;2023-01-05T08:02:16;23.70;;;6.88;;
13147;SDS011;6639;50.956;4.242;2023-01-05T08:04:55;30.55;;;6.63;;
13147;SDS011;6639;50.956;4.242;2023-01-05T08:07:26;23.90;;;6.55;;
13147;SDS011;6639;50.956;4.242;2023-01-05T08:10:03;22.65;;;6.05;;
13147;SDS011;6639;50.956;4.242;2023-01-05T08:12:50;24.98;;;7.25;;
13147;SDS011;6639;50.956;4.242;2023-01-05T08:15:43;24.30;;;7.00;;
13147;SDS011;6639;50.956;4.242;2023-01-05T08:18:15;25.42;;;7.20;;
13147;SDS011;6639;50.956;4.242;2023-01-05T08:20:54;20.92;;;6.13;;
13147;SDS011;6639;50.956;4.242;2023-01-05T08:23:50;27.00;;;6.03;;
13147;SDS011;6639;50.956;4.242;2023-01-05T08:26:18;25.92;;;5.82;;
13147;SDS011;6639;50.956;4.242;2023-01-05T08:28:50;20.08;;;5.43;;
13147;SDS011;6639;50.956;4.242;2023-01-05T08:31:21;24.35;;;5.75;;
13147;SDS011;6639;50.956;4.242;2023-01-05T08:33:52;22.98;;;6.07;;
13147;SDS011;6639;50.956;4.242;2023-01-05T08:36:22;24.30;;;5.93;;
13147;SDS011;6639;50.956;4.242;2023-01-05T08:38:51;22.35;;;5.75;;
13147;SDS011;6639;50.956;4.242;2023-01-05T08:41:22;21.83;;;5.60;;
13147;SDS011;6639;50.956;4.242;2023-01-05T08:44:21;23.88;;;6.00;;
13147;SDS011;6639;50.956;4.242;2023-01-05T08:46:57;22.13;;;5.60;;
13147;SDS011;6639;50.956;4.242;2023-01-05T08:49:27;17.45;;;5.72;;
13147;SDS011;6639;50.956;4.242;2023-01-05T08:51:59;23.63;;;6.70;;
13147;SDS011;6639;50.956;4.242;2023-01-05T08:54:29;23.35;;;6.43;;
13147;SDS011;6639;50.956;4.242;2023-01-05T08:57:09;21.50;;;6.40;;
13147;SDS011;6639;50.956;4.242;2023-01-05T08:59:39;27.48;;;6.07;;
13147;SDS011;6639;50.956;4.242;2023-01-05T09:02:26;20.83;;;6.70;;
13147;SDS011;6639;50.956;4.242;2023-01-05T09:05:07;24.52;;;5.80;;
13147;SDS011;6639;50.956;4.242;2023-01-05T09:07:38;18.58;;;6.25;;
13147;SDS011;6639;50.956;4.242;2023-01-05T09:10:12;24.75;;;7.40;;
13147;SDS011;6639;50.956;4.242;2023-01-05T09:12:41;23.23;;;6.85;;
13147;SDS011;6639;50.956;4.242;2023-01-05T09:15:08;27.73;;;6.22;;
13147;SDS011;6639;50.956;4.242;2023-01-05T09:17:36;21.48;;;6.03;;
13147;SDS011;6639;50.956;4.242;2023-01-05T09:20:09;24.10;;;5.68;;
13147;SDS011;6639;50.956;4.242;2023-01-05T09:22:36;19.27;;;5.90;;
13147;SDS011;6639;50.956;4.242;2023-01-05T09:25:04;23.50;;;5.65;;
13147;SDS011;6639;50.956;4.242;2023-01-05T09:27:33;28.33;;;6.80;;
13147;SDS011;6639;50.956;4.242;2023-01-05T09:30:01;25.45;;;6.00;;
13147;SDS011;6639;50.956;4.242;2023-01-05T09:32:35;26.05;;;5.82;;
13147;SDS011;6639;50.956;4.242;2023-01-05T09:35:05;25.58;;;6.05;;
13147;SDS011;6639;50.956;4.242;2023-01-05T09:37:33;23.33;;;5.47;;
13147;SDS011;6639;50.956;4.242;2023-01-05T09:40:01;26.77;;;7.07;;
13147;SDS011;6639;50.956;4.242;2023-01-05T09:42:28;25.80;;;6.70;;
13147;SDS011;6639;50.956;4.242;2023-01-05T09:45:03;26.95;;;6.38;;
13147;SDS011;6639;50.956;4.242;2023-01-05T09:47:33;24.90;;;6.47;;
13147;SDS011;6639;50.956;4.242;2023-01-05T09:50:03;19.38;;;5.22;;
13147;SDS011;6639;50.956;4.242;2023-01-05T09:52:58;19.88;;;5.82;;
13147;SDS011;6639;50.956;4.242;2023-01-05T09:55:26;28.40;;;7.05;;
13147;SDS011;6639;50.956;4.242;2023-01-05T09:58:09;22.42;;;6.40;;
13147;SDS011;6639;50.956;4.242;2023-01-05T10:01:03;24.92;;;6.18;;
13147;SDS011;6639;50.956;4.242;2023-01-05T10:03:48;29.08;;;6.68;;
13147;SDS011;6639;50.956;4.242;2023-01-05T10:06:32;27.92;;;6.47;;
13147;SDS011;6639;50.956;4.242;2023-01-05T10:09:06;22.67;;;6.60;;
13147;SDS011;6639;50.956;4.242;2023-01-05T10:11:37;22.83;;;6.90;;
13147;SDS011;6639;50.956;4.242;2023-01-05T10:14:28;22.80;;;6.03;;
13147;SDS011;6639;50.956;4.242;2023-01-05T10:17:07;29.70;;;6.78;;
13147;SDS011;6639;50.956;4.242;2023-01-05T10:19:39;26.90;;;6.30;;
13147;SDS011;6639;50.956;4.242;2023-01-05T10:22:30;18.70;;;5.60;;
13147;SDS011;6639;50.956;4.242;2023-01-05T10:25:07;25.83;;;7.25;;
13147;SDS011;6639;50.956;4.242;2023-01-05T10:27:46;21.75;;;6.10;;
13147;SDS011;6639;50.956;4.242;2023-01-05T10:30:38;19.67;;;6.13;;
13147;SDS011;6639;50.956;4.242;2023-01-05T10:33:38;21.00;;;6.50;;
13147;SDS011;6639;50.956;4.242;2023-01-05T10:39:40;23.83;;;6.72;;
13147;SDS011;6639;50.956;4.242;2023-01-05T10:42:23;23.58;;;6.45;;
13147;SDS011;6639;50.956;4.242;2023-01-05T10:44:59;21.45;;;5.57;;
13147;SDS011;6639;50.956;4.242;2023-01-05T10:47:29;21.58;;;6.15;;
13147;SDS011;6639;50.956;4.242;2023-01-05T10:50:25;24.20;;;5.50;;
13147;SDS011;6639;50.956;4.242;2023-01-05T10:53:10;27.67;;;6.25;;
13147;SDS011;6639;50.956;4.242;2023-01-05T10:55:52;21.80;;;5.95;;
13147;SDS011;6639;50.956;4.242;2023-01-05T10:58:29;23.80;;;5.47;;
13147;SDS011;6639;50.956;4.242;2023-01-05T11:01:01;27.40;;;5.97;;
13147;SDS011;6639;50.956;4.242;2023-01-05T11:03:37;27.20;;;5.95;;
13147;SDS011;6639;50.956;4.242;2023-01-05T11:06:21;22.02;;;5.40;;
13147;SDS011;6639;50.956;4.242;2023-01-05T11:08:52;21.85;;;6.07;;
13147;SDS011;6639;50.956;4.242;2023-01-05T11:11:50;23.23;;;6.20;;
13147;SDS011;6639;50.956;4.242;2023-01-05T11:14:22;21.00;;;5.90;;
13147;SDS011;6639;50.956;4.242;2023-01-05T11:16:53;22.33;;;5.63;;
13147;SDS011;6639;50.956;4.242;2023-01-05T11:22:28;16.75;;;5.70;;
13147;SDS011;6639;50.956;4.242;2023-01-05T11:25:31;21.77;;;6.15;;
13147;SDS011;6639;50.956;4.242;2023-01-05T11:30:56;24.10;;;6.05;;
13147;SDS011;6639;50.956;4.242;2023-01-05T11:33:29;25.75;;;7.00;;
13147;SDS011;6639;50.956;4.242;2023-01-05T11:36:13;27.80;;;7.18;;
13147;SDS011;6639;50.956;4.242;2023-01-05T11:38:42;22.42;;;6.30;;
13147;SDS011;6639;50.956;4.242;2023-01-05T11:41:15;17.92;;;6.30;;
13147;SDS011;6639;50.956;4.242;2023-01-05T11:43:55;27.35;;;8.05;;
13147;SDS011;6639;50.956;4.242;2023-01-05T11:46:44;29.73;;;7.35;;
13147;SDS011;6639;50.956;4.242;2023-01-05T11:49:26;22.52;;;6.80;;
13147;SDS011;6639;50.956;4.242;2023-01-05T11:51:55;24.50;;;6.45;;
13147;SDS011;6639;50.956;4.242;2023-01-05T11:54:34;20.77;;;6.05;;
13147;SDS011;6639;50.956;4.242;2023-01-05T11:57:17;27.13;;;6.60;;
13147;SDS011;6639;50.956;4.242;2023-01-05T11:59:51;25.27;;;6.28;;
13147;SDS011;6639;50.956;4.242;2023-01-05T12:02:48;22.83;;;5.97;;
13147;SDS011;6639;50.956;4.242;2023-01-05T12:05:48;25.50;;;7.10;;
13147;SDS011;6639;50.956;4.242;2023-01-05T12:08:56;26.88;;;6.57;;
13147;SDS011;6639;50.956;4.242;2023-01-05T12:24:30;19.60;;;6.47;;
13147;SDS011;6639;50.956;4.242;2023-01-05T12:30:29;29.77;;;7.35;;
13147;SDS011;6639;50.956;4.242;2023-01-05T12:33:32;20.75;;;5.88;;
13147;SDS011;6639;50.956;4.242;2023-01-05T12:36:24;20.75;;;6.03;;
13147;SDS011;6639;50.956;4.242;2023-01-05T12:39:08;23.60;;;6.32;;
13147;SDS011;6639;50.956;4.242;2023-01-05T12:42:31;20.27;;;6.38;;
13147;SDS011;6639;50.956;4.242;2023-01-05T12:46:33;31.02;;;7.10;;
13147;SDS011;6639;50.956;4.242;2023-01-05T12:49:14;27.42;;;7.13;;
13147;SDS011;6639;50.956;4.242;2023-01-05T12:51:47;21.92;;;6.82;;
13147;SDS011;6639;50.956;4.242;2023-01-05T12:54:27;27.48;;;6.18;;
13147;SDS011;6639;50.956;4.242;2023-01-05T12:57:09;27.25;;;7.35;;
13147;SDS011;6639;50.956;4.242;2023-01-05T12:59:46;25.40;;;6.85;;
13147;SDS011;6639;50.956;4.242;2023-01-05T13:02:27;22.05;;;7.07;;
13147;SDS011;6639;50.956;4.242;2023-01-05T13:05:05;25.55;;;6.85;;
13147;SDS011;6639;50.956;4.242;2023-01-05T13:07:51;27.73;;;7.47;;
13147;SDS011;6639;50.956;4.242;2023-01-05T13:10:36;27.38;;;7.47;;
13147;SDS011;6639;50.956;4.242;2023-01-05T13:13:11;24.77;;;7.50;;
13147;SDS011;6639;50.956;4.242;2023-01-05T13:15:51;24.17;;;6.38;;
13147;SDS011;6639;50.956;4.242;2023-01-05T13:18:29;24.13;;;6.75;;
13147;SDS011;6639;50.956;4.242;2023-01-05T13:21:03;31.48;;;7.65;;
13147;SDS011;6639;50.956;4.242;2023-01-05T13:23:39;30.65;;;7.72;;
13147;SDS011;6639;50.956;4.242;2023-01-05T13:26:26;19.30;;;6.50;;
13147;SDS011;6639;50.956;4.242;2023-01-05T13:28:57;26.52;;;7.43;;
13147;SDS011;6639;50.956;4.242;2023-01-05T13:31:33;25.23;;;7.10;;
13147;SDS011;6639;50.956;4.242;2023-01-05T13:38:20;27.05;;;6.35;;
13147;SDS011;6639;50.956;4.242;2023-01-05T13:41:32;27.00;;;7.28;;
13147;SDS011;6639;50.956;4.242;2023-01-05T13:44:38;16.77;;;5.78;;
13147;SDS011;6639;50.956;4.242;2023-01-05T13:47:40;26.50;;;5.85;;
13147;SDS011;6639;50.956;4.242;2023-01-05T13:50:46;17.60;;;5.75;;
13147;SDS011;6639;50.956;4.242;2023-01-05T13:53:34;13.93;;;4.97;;
13147;SDS011;6639;50.956;4.242;2023-01-05T13:56:12;17.65;;;6.03;;
13147;SDS011;6639;50.956;4.242;2023-01-05T13:58:48;12.65;;;4.97;;
13147;SDS011;6639;50.956;4.242;2023-01-05T14:01:40;12.82;;;5.65;;
13147;SDS011;6639;50.956;4.242;2023-01-05T14:04:16;12.38;;;5.13;;
13147;SDS011;6639;50.956;4.242;2023-01-05T14:07:10;10.75;;;6.03;;
13147;SDS011;6639;50.956;4.242;2023-01-05T14:09:45;14.10;;;6.10;;
13147;SDS011;6639;50.956;4.242;2023-01-05T14:18:06;9.30;;;5.32;;
13147;SDS011;6639;50.956;4.242;2023-01-05T14:20:38;11.10;;;5.68;;
13147;SDS011;6639;50.956;4.242;2023-01-05T14:26:18;12.88;;;5.05;;
13147;SDS011;6639;50.956;4.242;2023-01-05T14:32:31;10.65;;;4.90;;
13147;SDS011;6639;50.956;4.242;2023-01-05T14:35:07;11.05;;;4.35;;
13147;SDS011;6639;50.956;4.242;2023-01-05T14:38:06;9.57;;;4.20;;
13147;SDS011;6639;50.956;4.242;2023-01-05T14:40:55;8.40;;;4.20;;
13147;SDS011;6639;50.956;4.242;2023-01-05T14:43:33;6.22;;;3.78;;
13147;SDS011;6639;50.956;4.242;2023-01-05T14:46:11;7.78;;;3.97;;
13147;SDS011;6639;50.956;4.242;2023-01-05T14:48:57;5.20;;;3.70;;
13147;SDS011;6639;50.956;4.242;2023-01-05T14:51:36;4.60;;;3.60;;
13147;SDS011;6639;50.956;4.242;2023-01-05T14:54:35;6.15;;;3.50;;
13147;SDS011;6639;50.956;4.242;2023-01-05T14:57:36;8.57;;;4.00;;
13147;SDS011;6639;50.956;4.242;2023-01-05T15:03:32;6.95;;;3.90;;
13147;SDS011;6639;50.956;4.242;2023-01-05T15:06:14;6.15;;;4.20;;
13147;SDS011;6639;50.956;4.242;2023-01-05T15:12:07;7.80;;;4.32;;
13147;SDS011;6639;50.956;4.242;2023-01-05T15:15:02;6.22;;;4.18;;
13147;SDS011;6639;50.956;4.242;2023-01-05T15:18:23;6.68;;;4.32;;
13147;SDS011;6639;50.956;4.242;2023-01-05T15:24:18;5.28;;;4.40;;
13147;SDS011;6639;50.956;4.242;2023-01-05T15:27:24;5.43;;;4.88;;
13147;SDS011;6639;50.956;4.242;2023-01-05T15:30:23;9.23;;;5.70;;
13147;SDS011;6639;50.956;4.242;2023-01-05T15:33:34;7.60;;;5.63;;
13147;SDS011;6639;50.956;4.242;2023-01-05T15:36:11;6.90;;;6.07;;
13147;SDS011;6639;50.956;4.242;2023-01-05T15:38:56;9.38;;;6.55;;
13147;SDS011;6639;50.956;4.242;2023-01-05T15:41:24;8.15;;;6.95;;
13147;SDS011;6639;50.956;4.242;2023-01-05T15:43:53;8.90;;;6.57;;
13147;SDS011;6639;50.956;4.242;2023-01-05T15:46:25;7.90;;;6.65;;
13147;SDS011;6639;50.956;4.242;2023-01-05T15:49:00;7.65;;;6.93;;
13147;SDS011;6639;50.956;4.242;2023-01-05T15:51:30;8.75;;;6.72;;
13147;SDS011;6639;50.956;4.242;2023-01-05T15:54:01;8.02;;;7.28;;
13147;SDS011;6639;50.956;4.242;2023-01-05T15:56:32;7.25;;;6.55;;
13147;SDS011;6639;50.956;4.242;2023-01-05T15:59:16;6.90;;;6.35;;
13147;SDS011;6639;50.956;4.242;2023-01-05T16:01:52;8.10;;;6.57;;
13147;SDS011;6639;50.956;4.242;2023-01-05T16:04:19;6.57;;;6.03;;
13147;SDS011;6639;50.956;4.242;2023-01-05T16:06:47;6.68;;;6.03;;
13147;SDS011;6639;50.956;4.242;2023-01-05T16:09:22;6.45;;;5.85;;
13147;SDS011;6639;50.956;4.242;2023-01-05T16:11:51;6.50;;;5.90;;
13147;SDS011;6639;50.956;4.242;2023-01-05T16:14:23;6.00;;;5.50;;
13147;SDS011;6639;50.956;4.242;2023-01-05T16:16:55;7.80;;;6.95;;
13147;SDS011;6639;50.956;4.242;2023-01-05T16:19:29;8.32;;;6.85;;
13147;SDS011;6639;50.956;4.242;2023-01-05T16:22:03;7.25;;;6.60;;
13147;SDS011;6639;50.956;4.242;2023-01-05T16:24:40;8.05;;;7.35;;
13147;SDS011;6639;50.956;4.242;2023-01-05T16:27:11;7.85;;;7.15;;
13147;SDS011;6639;50.956;4.242;2023-01-05T16:29:39;8.77;;;7.72;;
13147;SDS011;6639;50.956;4.242;2023-01-05T16:32:32;8.57;;;7.78;;
13147;SDS011;6639;50.956;4.242;2023-01-05T16:35:23;7.32;;;6.63;;
13147;SDS011;6639;50.956;4.242;2023-01-05T16:38:04;8.00;;;7.07;;
13147;SDS011;6639;50.956;4.242;2023-01-05T16:40:58;7.35;;;6.65;;
13147;SDS011;6639;50.956;4.242;2023-01-05T16:43:33;7.35;;;6.70;;
13147;SDS011;6639;50.956;4.242;2023-01-05T16:48:57;9.43;;;7.93;;
13147;SDS011;6639;50.956;4.242;2023-01-05T16:51:37;8.30;;;7.60;;
13147;SDS011;6639;50.956;4.242;2023-01-05T16:54:16;8.95;;;8.05;;
13147;SDS011;6639;50.956;4.242;2023-01-05T16:56:49;8.18;;;7.38;;
13147;SDS011;6639;50.956;4.242;2023-01-05T16:59:30;8.38;;;7.57;;
13147;SDS011;6639;50.956;4.242;2023-01-05T17:05:15;9.10;;;8.27;;
13147;SDS011;6639;50.956;4.242;2023-01-05T17:07:48;9.02;;;8.10;;
13147;SDS011;6639;50.956;4.242;2023-01-05T17:10:18;9.02;;;7.35;;
13147;SDS011;6639;50.956;4.242;2023-01-05T17:15:34;6.80;;;6.20;;
13147;SDS011;6639;50.956;4.242;2023-01-05T17:18:09;7.75;;;7.05;;
13147;SDS011;6639;50.956;4.242;2023-01-05T17:20:42;7.70;;;7.05;;
13147;SDS011;6639;50.956;4.242;2023-01-05T17:23:13;7.13;;;6.38;;
13147;SDS011;6639;50.956;4.242;2023-01-05T17:25:45;7.28;;;6.78;;
13147;SDS011;6639;50.956;4.242;2023-01-05T17:28:17;6.95;;;6.38;;
13147;SDS011;6639;50.956;4.242;2023-01-05T17:30:46;5.82;;;5.32;;